sensor_id;sensor_type;location;lat;lon;timestamp;pressure;altitude;pressure_sealevel;temperature;humidity
85023;BME280;75348;43.126;-2.538;2024-03-17T00:00:32;99906.34;;;18.92;57.03
85023;BME280;75348;43.126;-2.538;2024-03-17T00:02:58;99899.28;;;18.97;56.81
85023;BME280;75348;43.126;-2.538;2024-03-17T00:05:24;99886.31;;;19.33;55.28
85023;BME280;75348;43.126;-2.538;2024-03-17T00:07:50;99882.16;;;18.92;56.66
85023;BME280;75348;43.126;-2.538;2024-03-17T00:10:16;99888.78;;;19.02;56.22
85023;BME280;75348;43.126;-2.538;2024-03-17T00:12:42;99889.44;;;19.23;55.58
85023;BME280;75348;43.126;-2.538;2024-03-17T00:15:08;99872.91;;;19.14;55.80
85023;BME280;75348;43.126;-2.538;2024-03-17T00:17:34;99895.41;;;19.25;55.25
85023;BME280;75348;43.126;-2.538;2024-03-17T00:20:04;99879.91;;;19.40;55.16
85023;BME280;75348;43.126;-2.538;2024-03-17T00:22:35;99887.56;;;19.11;56.48
85023;BME280;75348;43.126;-2.538;2024-03-17T00:25:07;99885.50;;;19.19;55.77
85023;BME280;75348;43.126;-2.538;2024-03-17T00:27:34;99851.13;;;18.76;56.93
85023;BME280;75348;43.126;-2.538;2024-03-17T00:30:06;99875.13;;;18.97;56.63
85023;BME280;75348;43.126;-2.538;2024-03-17T00:32:39;99880.28;;;18.86;57.64
85023;BME280;75348;43.126;-2.538;2024-03-17T00:35:06;99875.72;;;18.80;57.69
85023;BME280;75348;43.126;-2.538;2024-03-17T00:37:33;99879.66;;;18.84;57.63
85023;BME280;75348;43.126;-2.538;2024-03-17T00:40:03;99888.63;;;19.17;56.49
85023;BME280;75348;43.126;-2.538;2024-03-17T00:42:29;99845.38;;;19.18;55.92
85023;BME280;75348;43.126;-2.538;2024-03-17T00:44:56;99870.81;;;19.16;56.50
85023;BME280;75348;43.126;-2.538;2024-03-17T00:47:22;99847.81;;;18.81;57.21
85023;BME280;75348;43.126;-2.538;2024-03-17T00:49:48;99846.59;;;18.96;56.81
85023;BME280;75348;43.126;-2.538;2024-03-17T00:52:16;99858.59;;;18.94;57.26
85023;BME280;75348;43.126;-2.538;2024-03-17T00:54:42;99835.59;;;18.66;58.13
85023;BME280;75348;43.126;-2.538;2024-03-17T00:57:08;99829.22;;;18.73;57.45
85023;BME280;75348;43.126;-2.538;2024-03-17T00:59:34;99841.81;;;18.66;58.03
85023;BME280;75348;43.126;-2.538;2024-03-17T01:02:00;99854.88;;;18.88;57.60
85023;BME280;75348;43.126;-2.538;2024-03-17T01:04:27;99847.22;;;18.79;57.89
85023;BME280;75348;43.126;-2.538;2024-03-17T01:06:54;99824.44;;;18.43;59.00
85023;BME280;75348;43.126;-2.538;2024-03-17T01:09:20;99844.84;;;18.37;59.89
85023;BME280;75348;43.126;-2.538;2024-03-17T01:11:46;99842.16;;;18.37;59.67
85023;BME280;75348;43.126;-2.538;2024-03-17T01:14:12;99844.28;;;18.61;58.95
85023;BME280;75348;43.126;-2.538;2024-03-17T01:16:38;99840.59;;;18.75;58.49
85023;BME280;75348;43.126;-2.538;2024-03-17T01:19:04;99832.72;;;18.54;59.05
85023;BME280;75348;43.126;-2.538;2024-03-17T01:21:30;99851.91;;;18.58;59.50
85023;BME280;75348;43.126;-2.538;2024-03-17T01:23:56;99850.91;;;18.59;59.26
85023;BME280;75348;43.126;-2.538;2024-03-17T01:26:22;99850.47;;;18.55;59.08
85023;BME280;75348;43.126;-2.538;2024-03-17T01:28:49;99819.25;;;18.41;59.22
85023;BME280;75348;43.126;-2.538;2024-03-17T01:31:15;99855.66;;;18.57;59.16
85023;BME280;75348;43.126;-2.538;2024-03-17T01:33:41;99851.72;;;18.72;58.58
85023;BME280;75348;43.126;-2.538;2024-03-17T01:36:07;99858.31;;;18.50;59.42
85023;BME280;75348;43.126;-2.538;2024-03-17T01:38:33;99858.06;;;18.45;59.61
85023;BME280;75348;43.126;-2.538;2024-03-17T01:40:59;99865.09;;;18.40;59.76
85023;BME280;75348;43.126;-2.538;2024-03-17T01:43:26;99855.53;;;18.18;60.50
85023;BME280;75348;43.126;-2.538;2024-03-17T01:45:52;99861.81;;;18.44;59.68
85023;BME280;75348;43.126;-2.538;2024-03-17T01:48:19;99847.34;;;18.45;59.57
85023;BME280;75348;43.126;-2.538;2024-03-17T01:50:46;99809.72;;;18.32;59.73
85023;BME280;75348;43.126;-2.538;2024-03-17T01:53:14;99818.00;;;18.37;59.19
85023;BME280;75348;43.126;-2.538;2024-03-17T01:55:43;99822.94;;;18.27;59.82
85023;BME280;75348;43.126;-2.538;2024-03-17T01:58:09;99817.59;;;18.40;59.42
85023;BME280;75348;43.126;-2.538;2024-03-17T02:00:38;99815.91;;;18.27;60.36
85023;BME280;75348;43.126;-2.538;2024-03-17T02:03:06;99819.63;;;18.26;59.73
85023;BME280;75348;43.126;-2.538;2024-03-17T02:05:37;99808.09;;;18.31;59.14
85023;BME280;75348;43.126;-2.538;2024-03-17T02:08:04;99802.28;;;18.28;59.17
85023;BME280;75348;43.126;-2.538;2024-03-17T02:10:31;99814.09;;;18.33;58.96
85023;BME280;75348;43.126;-2.538;2024-03-17T02:12:57;99792.81;;;18.38;57.95
85023;BME280;75348;43.126;-2.538;2024-03-17T02:15:23;99803.53;;;18.32;58.66
85023;BME280;75348;43.126;-2.538;2024-03-17T02:17:49;99817.81;;;18.45;58.15
85023;BME280;75348;43.126;-2.538;2024-03-17T02:20:15;99816.34;;;18.30;58.68
85023;BME280;75348;43.126;-2.538;2024-03-17T02:22:41;99815.13;;;18.52;58.43
85023;BME280;75348;43.126;-2.538;2024-03-17T02:25:07;99794.03;;;18.29;58.33
85023;BME280;75348;43.126;-2.538;2024-03-17T02:27:35;99799.25;;;18.50;58.04
85023;BME280;75348;43.126;-2.538;2024-03-17T02:30:04;99822.97;;;18.53;57.94
85023;BME280;75348;43.126;-2.538;2024-03-17T02:32:34;99815.19;;;18.71;57.52
85023;BME280;75348;43.126;-2.538;2024-03-17T02:35:01;99801.31;;;18.55;58.02
85023;BME280;75348;43.126;-2.538;2024-03-17T02:37:27;99793.44;;;18.53;57.76
85023;BME280;75348;43.126;-2.538;2024-03-17T02:39:53;99796.19;;;18.66;57.61
85023;BME280;75348;43.126;-2.538;2024-03-17T02:42:19;99750.47;;;18.40;57.69
85023;BME280;75348;43.126;-2.538;2024-03-17T02:44:45;99770.13;;;18.41;58.60
85023;BME280;75348;43.126;-2.538;2024-03-17T02:47:11;99785.84;;;18.50;58.44
85023;BME280;75348;43.126;-2.538;2024-03-17T02:49:40;99770.13;;;18.60;57.97
85023;BME280;75348;43.126;-2.538;2024-03-17T02:52:10;99791.00;;;18.58;57.90
85023;BME280;75348;43.126;-2.538;2024-03-17T02:54:37;99791.41;;;18.55;58.30
85023;BME280;75348;43.126;-2.538;2024-03-17T02:57:04;99802.34;;;18.60;57.89
85023;BME280;75348;43.126;-2.538;2024-03-17T02:59:32;99813.91;;;18.54;58.60
85023;BME280;75348;43.126;-2.538;2024-03-17T03:01:59;99817.59;;;18.40;59.18
85023;BME280;75348;43.126;-2.538;2024-03-17T03:04:26;99816.78;;;18.46;59.09
85023;BME280;75348;43.126;-2.538;2024-03-17T03:06:52;99818.84;;;18.31;59.73
85023;BME280;75348;43.126;-2.538;2024-03-17T03:09:18;99781.34;;;18.04;60.23
85023;BME280;75348;43.126;-2.538;2024-03-17T03:12:00;99799.78;;;18.14;60.55
85023;BME280;75348;43.126;-2.538;2024-03-17T03:14:29;99805.16;;;18.27;60.25
85023;BME280;75348;43.126;-2.538;2024-03-17T03:16:55;99795.69;;;18.30;60.19
85023;BME280;75348;43.126;-2.538;2024-03-17T03:19:21;99789.13;;;18.39;59.97
85023;BME280;75348;43.126;-2.538;2024-03-17T03:21:47;99791.56;;;18.34;59.52
85023;BME280;75348;43.126;-2.538;2024-03-17T03:24:14;99804.34;;;18.26;60.74
85023;BME280;75348;43.126;-2.538;2024-03-17T03:26:40;99795.66;;;18.18;60.48
85023;BME280;75348;43.126;-2.538;2024-03-17T03:29:06;99797.28;;;18.12;61.04
85023;BME280;75348;43.126;-2.538;2024-03-17T03:31:33;99816.34;;;18.30;60.48
85023;BME280;75348;43.126;-2.538;2024-03-17T03:33:59;99779.78;;;18.29;60.20
85023;BME280;75348;43.126;-2.538;2024-03-17T03:36:29;99804.56;;;18.31;60.55
85023;BME280;75348;43.126;-2.538;2024-03-17T03:38:55;99773.53;;;18.09;61.05
85023;BME280;75348;43.126;-2.538;2024-03-17T03:41:23;99800.47;;;18.48;59.69
85023;BME280;75348;43.126;-2.538;2024-03-17T03:43:49;99788.88;;;18.34;60.30
85023;BME280;75348;43.126;-2.538;2024-03-17T03:46:15;99816.16;;;18.44;60.18
85023;BME280;75348;43.126;-2.538;2024-03-17T03:48:41;99808.50;;;18.35;60.82
85023;BME280;75348;43.126;-2.538;2024-03-17T03:51:08;99819.03;;;18.36;60.69
85023;BME280;75348;43.126;-2.538;2024-03-17T03:53:36;99816.59;;;18.48;59.96
85023;BME280;75348;43.126;-2.538;2024-03-17T03:56:04;99821.31;;;18.39;60.43
85023;BME280;75348;43.126;-2.538;2024-03-17T03:58:34;99789.91;;;18.21;60.81
85023;BME280;75348;43.126;-2.538;2024-03-17T04:01:08;99800.66;;;18.33;60.12
85023;BME280;75348;43.126;-2.538;2024-03-17T04:03:34;99791.13;;;18.25;60.51
85023;BME280;75348;43.126;-2.538;2024-03-17T04:06:09;99820.47;;;18.32;60.86
85023;BME280;75348;43.126;-2.538;2024-03-17T04:08:39;99796.69;;;18.17;60.60
85023;BME280;75348;43.126;-2.538;2024-03-17T04:11:08;99809.50;;;18.27;61.00
85023;BME280;75348;43.126;-2.538;2024-03-17T04:13:35;99825.84;;;18.32;60.75
85023;BME280;75348;43.126;-2.538;2024-03-17T04:16:05;99823.94;;;18.27;61.43
85023;BME280;75348;43.126;-2.538;2024-03-17T04:18:32;99823.72;;;18.22;61.82
85023;BME280;75348;43.126;-2.538;2024-03-17T04:21:04;99822.28;;;18.13;62.13
85023;BME280;75348;43.126;-2.538;2024-03-17T04:23:31;99821.88;;;18.16;61.29
85023;BME280;75348;43.126;-2.538;2024-03-17T04:26:00;99826.19;;;18.17;61.95
85023;BME280;75348;43.126;-2.538;2024-03-17T04:28:27;99821.22;;;18.14;61.99
85023;BME280;75348;43.126;-2.538;2024-03-17T04:31:01;99815.25;;;18.12;61.88
85023;BME280;75348;43.126;-2.538;2024-03-17T04:33:27;99816.25;;;18.11;61.68
85023;BME280;75348;43.126;-2.538;2024-03-17T04:35:53;99794.50;;;17.93;61.76
85023;BME280;75348;43.126;-2.538;2024-03-17T04:38:19;99827.41;;;18.08;62.09
85023;BME280;75348;43.126;-2.538;2024-03-17T04:40:45;99823.84;;;18.01;62.39
85023;BME280;75348;43.126;-2.538;2024-03-17T04:43:11;99797.34;;;17.79;62.68
85023;BME280;75348;43.126;-2.538;2024-03-17T04:45:37;99778.94;;;17.69;62.58
85023;BME280;75348;43.126;-2.538;2024-03-17T04:48:03;99788.47;;;17.72;62.28
85023;BME280;75348;43.126;-2.538;2024-03-17T04:50:30;99800.94;;;17.92;62.48
85023;BME280;75348;43.126;-2.538;2024-03-17T04:52:59;99817.25;;;17.97;62.46
85023;BME280;75348;43.126;-2.538;2024-03-17T04:55:25;99820.91;;;17.89;62.75
85023;BME280;75348;43.126;-2.538;2024-03-17T04:57:51;99801.72;;;17.86;62.46
85023;BME280;75348;43.126;-2.538;2024-03-17T05:00:18;99798.84;;;17.87;62.28
85023;BME280;75348;43.126;-2.538;2024-03-17T05:02:45;99803.78;;;17.84;62.34
85023;BME280;75348;43.126;-2.538;2024-03-17T05:05:11;99782.59;;;17.55;63.87
85023;BME280;75348;43.126;-2.538;2024-03-17T05:07:37;99811.91;;;17.63;63.37
85023;BME280;75348;43.126;-2.538;2024-03-17T05:10:04;99812.72;;;17.57;63.35
85023;BME280;75348;43.126;-2.538;2024-03-17T05:12:31;99837.72;;;17.64;63.25
85023;BME280;75348;43.126;-2.538;2024-03-17T05:14:57;99817.25;;;17.23;65.51
85023;BME280;75348;43.126;-2.538;2024-03-17T05:17:23;99836.16;;;16.94;68.03
85023;BME280;75348;43.126;-2.538;2024-03-17T05:19:49;99828.16;;;17.22;64.47
85023;BME280;75348;43.126;-2.538;2024-03-17T05:22:15;99823.97;;;16.92;67.66
85023;BME280;75348;43.126;-2.538;2024-03-17T05:24:41;99823.00;;;16.72;68.08
85023;BME280;75348;43.126;-2.538;2024-03-17T05:27:07;99829.19;;;16.52;69.63
85023;BME280;75348;43.126;-2.538;2024-03-17T05:29:33;99834.59;;;16.38;70.98
85023;BME280;75348;43.126;-2.538;2024-03-17T05:32:04;99828.56;;;16.36;70.34
85023;BME280;75348;43.126;-2.538;2024-03-17T05:34:30;99830.81;;;16.18;71.00
85023;BME280;75348;43.126;-2.538;2024-03-17T05:36:58;99836.47;;;16.08;71.02
85023;BME280;75348;43.126;-2.538;2024-03-17T05:39:24;99842.00;;;16.07;70.96
85023;BME280;75348;43.126;-2.538;2024-03-17T05:41:49;99836.09;;;15.76;73.32
85023;BME280;75348;43.126;-2.538;2024-03-17T05:44:17;99852.84;;;15.70;73.58
85023;BME280;75348;43.126;-2.538;2024-03-17T05:46:43;99853.94;;;15.61;73.79
85023;BME280;75348;43.126;-2.538;2024-03-17T05:49:09;99860.69;;;15.43;74.03
85023;BME280;75348;43.126;-2.538;2024-03-17T05:51:36;99843.63;;;15.30;74.32
85023;BME280;75348;43.126;-2.538;2024-03-17T05:54:02;99852.47;;;15.16;74.58
85023;BME280;75348;43.126;-2.538;2024-03-17T05:56:28;99864.78;;;15.17;75.62
85023;BME280;75348;43.126;-2.538;2024-03-17T05:58:54;99860.16;;;15.33;75.16
85023;BME280;75348;43.126;-2.538;2024-03-17T06:01:19;99861.59;;;15.21;74.49
85023;BME280;75348;43.126;-2.538;2024-03-17T06:03:47;99859.38;;;15.39;74.57
85023;BME280;75348;43.126;-2.538;2024-03-17T06:06:13;99860.50;;;15.30;75.37
85023;BME280;75348;43.126;-2.538;2024-03-17T06:08:39;99860.41;;;15.53;74.82
85023;BME280;75348;43.126;-2.538;2024-03-17T06:11:05;99857.75;;;15.53;73.98
85023;BME280;75348;43.126;-2.538;2024-03-17T06:13:31;99861.59;;;15.36;74.35
85023;BME280;75348;43.126;-2.538;2024-03-17T06:15:57;99853.84;;;15.26;74.20
85023;BME280;75348;43.126;-2.538;2024-03-17T06:18:27;99861.41;;;15.37;74.30
85023;BME280;75348;43.126;-2.538;2024-03-17T06:20:53;99864.28;;;15.36;74.35
85023;BME280;75348;43.126;-2.538;2024-03-17T06:23:19;99862.16;;;15.46;74.48
85023;BME280;75348;43.126;-2.538;2024-03-17T06:25:47;99864.19;;;15.44;74.39
85023;BME280;75348;43.126;-2.538;2024-03-17T06:28:15;99858.94;;;15.36;75.03
85023;BME280;75348;43.126;-2.538;2024-03-17T06:30:46;99869.13;;;15.18;75.95
85023;BME280;75348;43.126;-2.538;2024-03-17T06:33:16;99869.66;;;15.13;75.22
85023;BME280;75348;43.126;-2.538;2024-03-17T06:35:45;99869.91;;;15.04;76.26
85023;BME280;75348;43.126;-2.538;2024-03-17T06:38:13;99865.94;;;15.22;75.59
85023;BME280;75348;43.126;-2.538;2024-03-17T06:40:41;99847.06;;;15.24;74.86
85023;BME280;75348;43.126;-2.538;2024-03-17T06:43:07;99851.13;;;15.12;75.85
85023;BME280;75348;43.126;-2.538;2024-03-17T06:45:34;99890.19;;;15.13;76.20
85023;BME280;75348;43.126;-2.538;2024-03-17T06:48:00;99883.22;;;15.26;76.63
85023;BME280;75348;43.126;-2.538;2024-03-17T06:50:26;99904.06;;;15.31;76.60
85023;BME280;75348;43.126;-2.538;2024-03-17T06:52:52;99899.19;;;15.34;76.10
85023;BME280;75348;43.126;-2.538;2024-03-17T06:55:20;99904.06;;;15.31;75.69
85023;BME280;75348;43.126;-2.538;2024-03-17T06:57:47;99898.56;;;15.47;75.84
85023;BME280;75348;43.126;-2.538;2024-03-17T07:00:14;99901.06;;;15.62;75.59
85023;BME280;75348;43.126;-2.538;2024-03-17T07:02:40;99901.88;;;15.77;75.77
85023;BME280;75348;43.126;-2.538;2024-03-17T07:05:15;99880.94;;;16.24;71.78
85023;BME280;75348;43.126;-2.538;2024-03-17T07:07:43;99904.69;;;16.48;71.11
85023;BME280;75348;43.126;-2.538;2024-03-17T07:10:10;99895.78;;;16.82;70.45
85023;BME280;75348;43.126;-2.538;2024-03-17T07:12:40;99896.97;;;16.59;71.73
85023;BME280;75348;43.126;-2.538;2024-03-17T07:15:07;99883.78;;;17.20;68.21
85023;BME280;75348;43.126;-2.538;2024-03-17T07:17:34;99885.66;;;17.46;67.35
85023;BME280;75348;43.126;-2.538;2024-03-17T07:20:00;99860.31;;;17.55;65.79
85023;BME280;75348;43.126;-2.538;2024-03-17T07:22:27;99896.69;;;17.98;66.07
85023;BME280;75348;43.126;-2.538;2024-03-17T07:24:54;99891.25;;;17.85;66.04
85023;BME280;75348;43.126;-2.538;2024-03-17T07:27:27;99886.19;;;17.69;66.38
85023;BME280;75348;43.126;-2.538;2024-03-17T07:29:53;99888.22;;;18.01;65.94
85023;BME280;75348;43.126;-2.538;2024-03-17T07:32:20;99897.06;;;18.22;66.24
85023;BME280;75348;43.126;-2.538;2024-03-17T07:34:46;99911.78;;;18.45;67.56
85023;BME280;75348;43.126;-2.538;2024-03-17T07:37:12;99911.06;;;18.83;63.67
85023;BME280;75348;43.126;-2.538;2024-03-17T07:39:38;99903.50;;;20.27;60.29
85023;BME280;75348;43.126;-2.538;2024-03-17T07:42:04;99907.53;;;20.55;58.15
85023;BME280;75348;43.126;-2.538;2024-03-17T07:44:30;99911.28;;;20.91;56.57
85023;BME280;75348;43.126;-2.538;2024-03-17T07:47:00;99924.97;;;19.77;59.57
85023;BME280;75348;43.126;-2.538;2024-03-17T07:49:26;99926.34;;;18.83;64.10
85023;BME280;75348;43.126;-2.538;2024-03-17T07:51:52;99927.25;;;19.54;62.93
85023;BME280;75348;43.126;-2.538;2024-03-17T07:54:18;99940.09;;;19.65;61.76
85023;BME280;75348;43.126;-2.538;2024-03-17T07:56:45;99919.41;;;19.85;62.23
85023;BME280;75348;43.126;-2.538;2024-03-17T07:59:12;99940.13;;;20.91;57.40
85023;BME280;75348;43.126;-2.538;2024-03-17T08:01:42;99932.66;;;20.93;56.12
85023;BME280;75348;43.126;-2.538;2024-03-17T08:04:08;99895.34;;;20.90;57.83
85023;BME280;75348;43.126;-2.538;2024-03-17T08:06:34;99916.53;;;22.61;51.96
85023;BME280;75348;43.126;-2.538;2024-03-17T08:09:00;99892.97;;;23.08;49.33
85023;BME280;75348;43.126;-2.538;2024-03-17T08:11:27;99883.38;;;23.58;48.52
85023;BME280;75348;43.126;-2.538;2024-03-17T08:13:53;99882.84;;;25.23;44.60
85023;BME280;75348;43.126;-2.538;2024-03-17T08:16:20;99912.53;;;25.13;44.30
85023;BME280;75348;43.126;-2.538;2024-03-17T08:18:46;99893.22;;;25.26;44.66
85023;BME280;75348;43.126;-2.538;2024-03-17T08:21:12;99907.81;;;23.80;47.35
85023;BME280;75348;43.126;-2.538;2024-03-17T08:23:37;99906.47;;;23.94;47.60
85023;BME280;75348;43.126;-2.538;2024-03-17T08:26:23;99904.00;;;23.59;48.35
85023;BME280;75348;43.126;-2.538;2024-03-17T08:28:49;99910.09;;;23.43;48.41
85023;BME280;75348;43.126;-2.538;2024-03-17T08:31:15;99923.47;;;23.26;49.03
85023;BME280;75348;43.126;-2.538;2024-03-17T08:33:41;99935.94;;;23.79;48.36
85023;BME280;75348;43.126;-2.538;2024-03-17T08:36:08;99937.72;;;23.22;49.48
85023;BME280;75348;43.126;-2.538;2024-03-17T08:38:35;99939.53;;;23.51;48.44
85023;BME280;75348;43.126;-2.538;2024-03-17T08:41:06;99926.50;;;23.70;49.38
85023;BME280;75348;43.126;-2.538;2024-03-17T08:43:33;99917.44;;;24.11;48.08
85023;BME280;75348;43.126;-2.538;2024-03-17T08:46:07;99916.09;;;24.47;46.76
85023;BME280;75348;43.126;-2.538;2024-03-17T08:48:38;99896.00;;;24.60;46.55
85023;BME280;75348;43.126;-2.538;2024-03-17T08:51:05;99915.69;;;23.93;47.63
85023;BME280;75348;43.126;-2.538;2024-03-17T08:53:32;99921.69;;;23.95;47.39
85023;BME280;75348;43.126;-2.538;2024-03-17T08:55:59;99902.97;;;22.49;50.32
85023;BME280;75348;43.126;-2.538;2024-03-17T08:58:26;99896.97;;;23.17;49.16
85023;BME280;75348;43.126;-2.538;2024-03-17T09:00:52;99899.91;;;23.79;48.51
85023;BME280;75348;43.126;-2.538;2024-03-17T09:03:19;99890.41;;;24.94;45.25
85023;BME280;75348;43.126;-2.538;2024-03-17T09:05:47;99912.66;;;25.67;43.62
85023;BME280;75348;43.126;-2.538;2024-03-17T09:08:23;99925.88;;;26.77;41.40
85023;BME280;75348;43.126;-2.538;2024-03-17T09:10:51;99921.53;;;25.47;44.39
85023;BME280;75348;43.126;-2.538;2024-03-17T09:13:22;99902.84;;;25.83;43.43
85023;BME280;75348;43.126;-2.538;2024-03-17T09:15:54;99911.03;;;27.36;40.11
85023;BME280;75348;43.126;-2.538;2024-03-17T09:18:23;99900.47;;;25.21;45.01
85023;BME280;75348;43.126;-2.538;2024-03-17T09:21:03;99906.53;;;25.93;43.31
85023;BME280;75348;43.126;-2.538;2024-03-17T09:23:30;99903.03;;;26.99;41.33
85023;BME280;75348;43.126;-2.538;2024-03-17T09:26:02;99899.31;;;27.10;41.04
85023;BME280;75348;43.126;-2.538;2024-03-17T09:28:29;99886.22;;;25.47;44.18
85023;BME280;75348;43.126;-2.538;2024-03-17T09:30:56;99892.09;;;25.71;44.06
85023;BME280;75348;43.126;-2.538;2024-03-17T09:33:24;99902.31;;;26.40;42.48
85023;BME280;75348;43.126;-2.538;2024-03-17T09:36:00;99900.41;;;26.19;43.41
85023;BME280;75348;43.126;-2.538;2024-03-17T09:38:28;99891.00;;;25.72;43.98
85023;BME280;75348;43.126;-2.538;2024-03-17T09:40:54;99889.66;;;26.29;44.08
85023;BME280;75348;43.126;-2.538;2024-03-17T09:43:24;99887.13;;;25.36;45.48
85023;BME280;75348;43.126;-2.538;2024-03-17T09:45:51;99874.63;;;25.51;44.73
85023;BME280;75348;43.126;-2.538;2024-03-17T09:48:27;99876.22;;;27.12;41.48
85023;BME280;75348;43.126;-2.538;2024-03-17T09:50:56;99866.28;;;26.75;41.22
85023;BME280;75348;43.126;-2.538;2024-03-17T09:53:32;99874.97;;;29.23;37.21
85023;BME280;75348;43.126;-2.538;2024-03-17T09:56:00;99882.34;;;29.43;36.77
85023;BME280;75348;43.126;-2.538;2024-03-17T09:58:27;99891.09;;;28.49;38.81
85023;BME280;75348;43.126;-2.538;2024-03-17T10:00:54;99886.69;;;28.33;38.77
85023;BME280;75348;43.126;-2.538;2024-03-17T10:03:39;99882.03;;;28.34;38.73
85023;BME280;75348;43.126;-2.538;2024-03-17T10:06:09;99901.25;;;27.40;40.47
85023;BME280;75348;43.126;-2.538;2024-03-17T10:11:11;99908.75;;;24.87;46.22
85023;BME280;75348;43.126;-2.538;2024-03-17T10:13:37;99908.00;;;24.13;47.89
85023;BME280;75348;43.126;-2.538;2024-03-17T10:16:04;99906.97;;;23.69;49.49
85023;BME280;75348;43.126;-2.538;2024-03-17T10:18:30;99897.56;;;23.82;49.18
85023;BME280;75348;43.126;-2.538;2024-03-17T10:20:57;99894.31;;;24.42;48.52
85023;BME280;75348;43.126;-2.538;2024-03-17T10:23:27;99881.31;;;23.82;50.43
85023;BME280;75348;43.126;-2.538;2024-03-17T10:25:54;99891.91;;;23.72;50.61
85023;BME280;75348;43.126;-2.538;2024-03-17T10:28:20;99873.91;;;23.67;50.99
85023;BME280;75348;43.126;-2.538;2024-03-17T10:31:00;99889.16;;;23.38;51.49
85023;BME280;75348;43.126;-2.538;2024-03-17T10:33:27;99903.91;;;23.65;50.38
85023;BME280;75348;43.126;-2.538;2024-03-17T10:36:02;99889.28;;;24.00;49.27
85023;BME280;75348;43.126;-2.538;2024-03-17T10:38:31;99879.41;;;23.71;52.39
85023;BME280;75348;43.126;-2.538;2024-03-17T10:40:57;99860.00;;;25.19;46.73
85023;BME280;75348;43.126;-2.538;2024-03-17T10:43:23;99851.09;;;25.73;44.44
85023;BME280;75348;43.126;-2.538;2024-03-17T10:45:52;99857.91;;;25.75;44.20
85023;BME280;75348;43.126;-2.538;2024-03-17T10:48:20;99844.00;;;25.39;45.70
85023;BME280;75348;43.126;-2.538;2024-03-17T10:50:48;99875.00;;;24.39;48.31
85023;BME280;75348;43.126;-2.538;2024-03-17T10:53:19;99858.56;;;24.73;46.56
85023;BME280;75348;43.126;-2.538;2024-03-17T10:56:04;99847.19;;;24.32;46.51
85023;BME280;75348;43.126;-2.538;2024-03-17T10:58:36;99868.53;;;24.17;48.13
85023;BME280;75348;43.126;-2.538;2024-03-17T11:01:04;99850.81;;;23.87;47.70
85023;BME280;75348;43.126;-2.538;2024-03-17T11:03:34;99870.19;;;23.61;48.97
85023;BME280;75348;43.126;-2.538;2024-03-17T11:06:03;99866.91;;;24.05;48.14
85023;BME280;75348;43.126;-2.538;2024-03-17T11:08:34;99863.75;;;25.02;45.13
85023;BME280;75348;43.126;-2.538;2024-03-17T11:11:01;99832.47;;;24.56;45.42
85023;BME280;75348;43.126;-2.538;2024-03-17T11:13:35;99836.03;;;24.72;44.93
85023;BME280;75348;43.126;-2.538;2024-03-17T11:16:25;99853.13;;;24.06;46.40
85023;BME280;75348;43.126;-2.538;2024-03-17T11:18:52;99848.47;;;24.18;46.94
85023;BME280;75348;43.126;-2.538;2024-03-17T11:21:24;99840.34;;;24.18;47.26
85023;BME280;75348;43.126;-2.538;2024-03-17T11:24:01;99860.03;;;24.25;47.04
85023;BME280;75348;43.126;-2.538;2024-03-17T11:26:33;99845.19;;;24.16;46.77
85023;BME280;75348;43.126;-2.538;2024-03-17T11:29:00;99853.91;;;24.57;45.36
85023;BME280;75348;43.126;-2.538;2024-03-17T11:31:45;99859.09;;;24.31;46.53
85023;BME280;75348;43.126;-2.538;2024-03-17T11:34:32;99845.97;;;23.77;47.55
85023;BME280;75348;43.126;-2.538;2024-03-17T11:37:01;99845.47;;;24.03;47.32
85023;BME280;75348;43.126;-2.538;2024-03-17T11:42:22;99803.59;;;23.71;47.12
85023;BME280;75348;43.126;-2.538;2024-03-17T11:44:59;99820.06;;;24.60;45.50
85023;BME280;75348;43.126;-2.538;2024-03-17T11:47:40;99814.00;;;24.14;48.07
85023;BME280;75348;43.126;-2.538;2024-03-17T11:50:08;99814.59;;;24.43;47.30
85023;BME280;75348;43.126;-2.538;2024-03-17T11:52:38;99778.84;;;24.18;46.54
85023;BME280;75348;43.126;-2.538;2024-03-17T11:55:16;99812.84;;;24.65;46.24
85023;BME280;75348;43.126;-2.538;2024-03-17T11:57:43;99806.38;;;24.27;46.74
85023;BME280;75348;43.126;-2.538;2024-03-17T12:00:22;99783.09;;;24.54;46.63
85023;BME280;75348;43.126;-2.538;2024-03-17T12:02:49;99791.47;;;24.52;46.34
85023;BME280;75348;43.126;-2.538;2024-03-17T12:05:15;99771.69;;;25.33;44.22
85023;BME280;75348;43.126;-2.538;2024-03-17T12:07:42;99783.25;;;25.78;45.75
85023;BME280;75348;43.126;-2.538;2024-03-17T12:10:11;99778.94;;;25.28;43.97
85023;BME280;75348;43.126;-2.538;2024-03-17T12:12:39;99780.50;;;25.24;44.79
85023;BME280;75348;43.126;-2.538;2024-03-17T12:15:25;99779.50;;;25.30;45.39
85023;BME280;75348;43.126;-2.538;2024-03-17T12:17:52;99783.22;;;25.99;43.14
85023;BME280;75348;43.126;-2.538;2024-03-17T12:20:20;99763.28;;;25.51;43.92
85023;BME280;75348;43.126;-2.538;2024-03-17T12:22:47;99764.69;;;25.37;43.51
85023;BME280;75348;43.126;-2.538;2024-03-17T12:25:18;99755.84;;;25.63;43.71
85023;BME280;75348;43.126;-2.538;2024-03-17T12:27:45;99764.72;;;25.58;43.21
85023;BME280;75348;43.126;-2.538;2024-03-17T12:30:12;99752.34;;;25.30;44.29
85023;BME280;75348;43.126;-2.538;2024-03-17T12:32:38;99725.66;;;24.57;45.31
85023;BME280;75348;43.126;-2.538;2024-03-17T12:35:13;99756.66;;;25.09;44.52
85023;BME280;75348;43.126;-2.538;2024-03-17T12:37:39;99745.66;;;25.00;43.89
85023;BME280;75348;43.126;-2.538;2024-03-17T12:40:18;99745.91;;;24.98;45.04
85023;BME280;75348;43.126;-2.538;2024-03-17T12:42:48;99746.50;;;25.75;44.17
85023;BME280;75348;43.126;-2.538;2024-03-17T12:45:19;99746.69;;;25.69;43.76
85023;BME280;75348;43.126;-2.538;2024-03-17T12:47:47;99736.97;;;25.94;43.39
85023;BME280;75348;43.126;-2.538;2024-03-17T12:50:14;99725.19;;;25.46;44.23
85023;BME280;75348;43.126;-2.538;2024-03-17T12:52:40;99724.84;;;25.80;42.55
85023;BME280;75348;43.126;-2.538;2024-03-17T12:55:18;99728.44;;;25.64;43.00
85023;BME280;75348;43.126;-2.538;2024-03-17T13:01:07;99716.06;;;24.98;44.80
85023;BME280;75348;43.126;-2.538;2024-03-17T13:03:35;99715.38;;;24.91;44.66